Time;durP1;ratioP1;P1;durP2;ratioP2;P2;SDS_P1;SDS_P2;PMS_P1;PMS_P2;Temp;Humidity;BMP_temperature;BMP_pressure;BME280_temperature;BME280_humidity;BME280_pressure;Samples;Min_cycle;Max_cycle;Signal;HPM_P1;HPM_P2
2022/06/25 00:02:15;;;;;;;14.15;3.15;;;;;;;44.93;17.40;100456.44;5080638;28;20120;-61
2022/06/25 00:07:26;;;;;;;13.18;2.60;;;;;;;44.76;18.10;100449.75;5077097;28;20036;-61
2022/06/25 00:09:53;;;;;;;13.85;2.97;;;;;;;45.87;16.63;100437.41;5076928;28;20026;-60
2022/06/25 00:12:31;;;;;;;13.13;2.53;;;;;;;47.01;15.90;100432.03;5078249;28;20490;-61
2022/06/25 00:15:05;;;;;;;11.60;2.38;;;;;;;45.55;16.70;100433.84;5085430;28;20028;-61
2022/06/25 00:17:33;;;;;;;16.85;2.60;;;;;;;44.72;18.03;100434.88;5086826;28;20033;-61
2022/06/25 00:19:59;;;;;;;21.50;3.05;;;;;;;46.24;16.49;100420.78;5082052;28;20016;-61
2022/06/25 00:22:26;;;;;;;16.42;2.95;;;;;;;46.35;15.90;100438.03;5074088;28;20033;-61
2022/06/25 00:24:53;;;;;;;11.25;2.50;;;;;;;45.30;17.07;100433.50;5079602;28;20064;-62
2022/06/25 00:27:20;;;;;;;9.52;2.58;;;;;;;44.60;17.91;100431.91;5086829;28;20062;-62
2022/06/25 00:29:47;;;;;;;20.60;3.30;;;;;;;43.95;18.30;100434.34;5083527;28;20025;-62
2022/06/25 00:32:13;;;;;;;14.73;3.05;;;;;;;44.54;18.07;100422.50;5089343;28;20055;-61
2022/06/25 00:34:40;;;;;;;16.77;2.88;;;;;;;45.43;18.07;100433.03;5081166;28;20031;-62
2022/06/25 00:37:08;;;;;;;15.30;2.83;;;;;;;45.38;18.48;100433.78;5084852;28;20035;-62
2022/06/25 00:39:36;;;;;;;20.70;3.00;;;;;;;44.95;18.82;100432.97;5084566;28;20016;-61
2022/06/25 00:42:09;;;;;;;15.93;3.20;;;;;;;44.42;19.18;100425.72;5084039;28;20047;-62
2022/06/25 00:44:36;;;;;;;15.38;2.55;;;;;;;45.27;18.07;100430.88;5081281;28;20036;-62
2022/06/25 00:47:04;;;;;;;15.18;3.03;;;;;;;44.37;18.93;100430.13;5086788;28;20035;-63
2022/06/25 00:49:31;;;;;;;13.40;2.55;;;;;;;43.01;21.02;100416.69;5080370;28;20428;-62
2022/06/25 00:52:04;;;;;;;16.50;2.85;;;;;;;43.50;20.36;100429.34;5082592;28;20028;-62
2022/06/25 00:54:36;;;;;;;17.75;2.75;;;;;;;44.79;18.51;100425.78;5084596;28;20078;-61
2022/06/25 00:57:06;;;;;;;21.77;2.85;;;;;;;45.46;17.92;100429.13;5084712;28;20035;-62
2022/06/25 00:59:46;;;;;;;17.38;2.42;;;;;;;45.35;17.81;100423.31;5083532;28;20119;-62
2022/06/25 01:02:13;;;;;;;22.88;2.65;;;;;;;45.09;18.16;100432.81;5083796;28;20029;-61
2022/06/25 01:04:39;;;;;;;13.20;2.65;;;;;;;44.69;18.45;100438.75;5084933;28;20032;-61
2022/06/25 01:07:08;;;;;;;10.80;2.20;;;;;;;44.26;18.40;100435.75;5081993;28;20035;-61
2022/06/25 01:09:36;;;;;;;8.60;2.30;;;;;;;43.18;19.03;100440.59;5081674;28;20506;-62
2022/06/25 01:12:03;;;;;;;11.60;1.95;;;;;;;43.85;18.46;100435.81;5082820;28;20082;-62
2022/06/25 01:14:30;;;;;;;7.55;2.08;;;;;;;43.36;18.55;100428.91;5077483;28;20036;-61
2022/06/25 01:16:58;;;;;;;12.50;1.98;;;;;;;43.46;18.36;100432.44;5082988;28;20028;-61
2022/06/25 01:19:25;;;;;;;18.00;2.40;;;;;;;43.56;17.65;100441.66;5090214;28;20465;-60
2022/06/25 01:21:52;;;;;;;13.57;2.40;;;;;;;43.17;17.95;100430.44;5084352;28;20069;-60
2022/06/25 01:24:19;;;;;;;7.68;1.50;;;;;;;43.11;17.65;100436.09;5078004;28;20093;-61
2022/06/25 01:26:45;;;;;;;10.57;1.77;;;;;;;43.16;17.39;100434.59;5078994;28;20505;-61
2022/06/25 01:29:12;;;;;;;8.82;1.52;;;;;;;43.39;17.22;100430.75;5078124;28;20477;-61
2022/06/25 01:31:39;;;;;;;8.27;2.00;;;;;;;42.86;17.88;100435.91;5082848;28;20102;-61
2022/06/25 01:34:06;;;;;;;7.55;1.92;;;;;;;42.01;18.78;100430.72;5074841;28;20037;-60
2022/06/25 01:36:35;;;;;;;6.95;2.00;;;;;;;41.86;18.26;100424.22;5075107;28;20115;-61
2022/06/25 01:39:02;;;;;;;8.95;1.90;;;;;;;41.96;19.24;100442.84;5079548;28;20032;-62
2022/06/25 01:41:30;;;;;;;10.35;1.92;;;;;;;41.21;21.09;100440.16;5076171;28;20017;-59
2022/06/25 01:43:56;;;;;;;7.18;2.05;;;;;;;41.21;20.82;100440.16;5077049;28;20030;-62
2022/06/25 01:46:23;;;;;;;8.25;1.95;;;;;;;41.34;20.89;100440.75;5083555;28;20107;-60
2022/06/25 01:48:50;;;;;;;14.25;2.05;;;;;;;40.88;21.21;100438.09;5093844;28;20032;-60
2022/06/25 01:51:17;;;;;;;8.82;1.70;;;;;;;40.37;21.06;100447.34;5093202;28;20023;-59
2022/06/25 01:53:45;;;;;;;9.07;1.80;;;;;;;40.03;20.88;100447.72;5090673;28;20033;-61
2022/06/25 01:56:12;;;;;;;7.68;1.83;;;;;;;39.60;22.82;100443.09;5093367;28;20028;-61
2022/06/25 01:58:39;;;;;;;8.38;2.10;;;;;;;39.31;23.04;100454.84;5092186;28;20036;-60
2022/06/25 02:01:05;;;;;;;6.80;1.90;;;;;;;39.18;23.36;100452.13;5094145;28;20394;-62
2022/06/25 02:03:32;;;;;;;9.68;2.00;;;;;;;39.22;23.15;100453.56;5093353;28;20058;-61
2022/06/25 02:05:59;;;;;;;9.13;1.75;;;;;;;39.19;22.62;100448.81;5092204;28;20074;-62
2022/06/25 02:08:32;;;;;;;13.27;2.28;;;;;;;39.42;22.40;100446.66;5089726;28;20402;-62
2022/06/25 02:11:01;;;;;;;20.23;2.20;;;;;;;39.12;23.69;100454.00;5093316;28;20035;-61
2022/06/25 02:13:29;;;;;;;9.57;1.90;;;;;;;39.14;23.03;100457.16;5096047;28;20039;-61
2022/06/25 02:15:57;;;;;;;12.57;1.90;;;;;;;39.04;22.93;100455.53;5100938;28;20039;-61
2022/06/25 02:18:24;;;;;;;13.23;2.15;;;;;;;39.05;22.54;100454.25;5093457;28;20471;-61
2022/06/25 02:20:52;;;;;;;7.38;2.13;;;;;;;38.85;23.04;100455.44;5094182;28;20035;-61
2022/06/25 02:23:20;;;;;;;7.60;1.85;;;;;;;38.59;22.96;100460.47;5093635;28;20027;-61
2022/06/25 02:25:47;;;;;;;6.13;1.70;;;;;;;38.45;22.46;100466.72;5093475;28;20055;-61
2022/06/25 02:28:15;;;;;;;11.85;2.20;;;;;;;38.50;22.65;100454.75;5093736;28;20020;-60
2022/06/25 02:30:43;;;;;;;14.55;2.20;;;;;;;38.50;22.57;100462.47;5092506;28;20081;-60
2022/06/25 02:33:12;;;;;;;13.07;2.20;;;;;;;38.35;23.70;100454.50;5077346;28;20524;-60
2022/06/25 02:35:43;;;;;;;7.55;1.77;;;;;;;38.16;24.31;100455.59;5092432;28;20039;-60
2022/06/25 02:38:12;;;;;;;6.53;1.80;;;;;;;38.05;24.38;100461.63;5101392;28;20036;-60
2022/06/25 02:40:41;;;;;;;13.73;2.33;;;;;;;38.05;24.24;100464.47;5092374;28;20119;-60
2022/06/25 02:43:08;;;;;;;17.80;2.85;;;;;;;37.87;25.13;100460.69;5094958;28;20115;-60
2022/06/25 02:45:40;;;;;;;19.35;3.25;;;;;;;37.82;25.85;100462.06;5092220;28;20437;-60
2022/06/25 02:48:08;;;;;;;14.40;3.20;;;;;;;37.71;26.62;100467.31;5091491;28;20402;-60
2022/06/25 02:50:35;;;;;;;12.40;2.72;;;;;;;37.64;27.13;100481.72;5097356;28;20031;-60
2022/06/25 02:53:03;;;;;;;13.85;2.50;;;;;;;37.60;27.98;100478.22;5099394;28;20020;-60
2022/06/25 03:01:01;;;;;;;15.07;2.33;;;;;;;37.12;28.06;100483.00;5108357;27;20088;-60
2022/06/25 03:03:28;;;;;;;12.75;1.92;;;;;;;36.85;28.86;100480.63;5092971;28;20022;-61
2022/06/25 03:05:54;;;;;;;15.95;2.40;;;;;;;36.74;28.75;100488.59;5095728;28;20034;-60
2022/06/25 03:08:21;;;;;;;11.30;2.13;;;;;;;36.70;28.77;100487.91;5095707;28;20031;-60
2022/06/25 03:10:48;;;;;;;9.88;2.00;;;;;;;36.64;29.00;100487.69;5095684;28;20446;-60
2022/06/25 03:13:14;;;;;;;10.13;2.03;;;;;;;36.63;28.65;100503.09;5097333;28;20520;-61
2022/06/25 03:15:41;;;;;;;14.18;2.13;;;;;;;36.54;28.67;100500.13;5095637;28;20106;-61
2022/06/25 03:18:10;;;;;;;17.25;2.20;;;;;;;36.39;29.14;100508.22;5093062;28;20103;-60
2022/06/25 03:20:55;;;;;;;14.77;2.63;;;;;;;36.28;29.92;100517.00;5096296;28;20563;-61
2022/06/25 03:23:22;;;;;;;10.75;2.13;;;;;;;36.11;30.35;100520.31;5096250;28;20034;-61
2022/06/25 03:25:53;;;;;;;16.83;2.10;;;;;;;36.07;30.90;100513.94;5097473;28;20020;-60
2022/06/25 03:28:21;;;;;;;14.55;1.85;;;;;;;35.95;30.70;100521.91;5095377;28;20032;-61
2022/06/25 03:30:50;;;;;;;12.23;1.90;;;;;;;35.93;30.68;100529.25;5093145;28;20027;-60
2022/06/25 03:33:17;;;;;;;12.77;2.38;;;;;;;35.93;30.20;100523.59;5098055;28;20059;-60
2022/06/25 03:35:48;;;;;;;21.23;2.80;;;;;;;35.82;30.60;100537.97;5096813;28;20067;-60
2022/06/25 03:38:20;;;;;;;16.40;2.45;;;;;;;35.96;30.86;100528.38;5095181;28;20039;-60
2022/06/25 03:40:47;;;;;;;20.30;2.58;;;;;;;35.85;30.42;100539.16;5095115;28;20063;-60
2022/06/25 03:43:17;;;;;;;27.13;2.63;;;;;;;35.71;30.76;100543.91;5098634;28;20031;-60
2022/06/25 03:45:45;;;;;;;15.20;2.20;;;;;;;35.56;31.11;100542.69;5105419;28;20121;-60
2022/06/25 03:48:12;;;;;;;13.52;2.20;;;;;;;35.55;31.54;100543.91;5105098;28;20523;-60
2022/06/25 03:50:59;;;;;;;15.57;2.42;;;;;;;35.33;31.87;100551.25;5097438;28;20385;-60
2022/06/25 03:53:26;;;;;;;11.38;2.30;;;;;;;35.23;32.06;100566.44;5107833;28;20036;-60
2022/06/25 03:55:52;;;;;;;26.90;3.03;;;;;;;35.14;32.00;100567.81;5093007;28;20035;-60
2022/06/25 03:58:20;;;;;;;19.77;3.33;;;;;;;35.30;31.88;100574.75;5106021;28;20035;-60
2022/06/25 04:00:46;;;;;;;18.10;3.20;;;;;;;35.31;31.48;100576.34;5095766;28;20032;-60
2022/06/25 04:03:13;;;;;;;20.77;3.47;;;;;;;35.27;31.58;100575.63;5080037;28;20490;-60
2022/06/25 04:06:00;;;;;;;21.30;3.60;;;;;;;35.22;31.61;100582.59;5102750;28;20025;-60
2022/06/25 04:08:46;;;;;;;18.63;3.40;;;;;;;35.09;31.64;100579.66;5110949;28;20077;-60
2022/06/25 04:11:15;;;;;;;20.10;3.72;;;;;;;34.89;32.30;100581.69;5080649;28;20036;-60
2022/06/25 04:13:52;;;;;;;29.27;4.15;;;;;;;34.73;32.27;100595.69;5104512;28;20100;-60
2022/06/25 04:16:21;;;;;;;16.60;3.65;;;;;;;34.51;32.97;100584.84;5099775;28;20516;-60
2022/06/25 04:18:48;;;;;;;18.58;3.80;;;;;;;34.47;32.87;100603.88;5109396;28;20031;-60
2022/06/25 04:21:16;;;;;;;14.18;3.25;;;;;;;34.43;32.94;100605.94;5096725;28;20035;-60
2022/06/25 04:23:44;;;;;;;19.63;3.47;;;;;;;34.27;33.20;100600.16;5103924;28;20054;-60
2022/06/25 04:26:14;;;;;;;19.92;3.58;;;;;;;34.10;33.42;100598.44;5092115;28;20109;-61
2022/06/25 04:31:36;;;;;;;21.20;4.07;;;;;;;34.28;33.10;100621.50;5084968;28;20032;-59
2022/06/25 04:34:04;;;;;;;20.88;3.08;;;;;;;34.38;33.03;100626.19;5101658;28;20143;-59
2022/06/25 04:36:32;;;;;;;18.67;3.30;;;;;;;34.25;33.13;100640.09;5106902;28;20489;-59
2022/06/25 04:39:19;;;;;;;16.55;4.10;;;;;;;34.15;32.84;100637.47;5082003;28;20035;-60
2022/06/25 04:41:46;;;;;;;19.65;4.45;;;;;;;34.10;33.07;100650.00;5104158;28;20122;-59
2022/06/25 04:44:25;;;;;;;24.95;3.60;;;;;;;34.04;33.28;100650.94;5098898;28;20061;-59
2022/06/25 04:46:54;;;;;;;22.90;4.82;;;;;;;34.11;34.13;100653.63;5095431;28;20047;-59
2022/06/25 04:49:30;;;;;;;15.52;4.75;;;;;;;33.99;34.21;100654.25;5106111;28;20024;-59
2022/06/25 04:51:57;;;;;;;32.33;4.53;;;;;;;33.89;34.39;100656.78;5102885;28;20516;-59
2022/06/25 04:54:24;;;;;;;23.42;3.88;;;;;;;33.76;34.41;100655.78;5098494;28;20027;-59
2022/06/25 04:57:10;;;;;;;20.17;5.32;;;;;;;33.98;34.33;100659.09;5113159;28;20038;-60
2022/06/25 04:59:52;;;;;;;63.70;49.17;;;;;;;34.14;33.72;100672.53;5119955;27;20032;-60
2022/06/25 05:02:29;;;;;;;38.03;25.48;;;;;;;33.88;33.89;100654.41;5105774;28;20481;-59
2022/06/25 05:04:57;;;;;;;23.48;6.80;;;;;;;34.06;34.21;100671.03;5094785;28;20036;-59
2022/06/25 05:07:25;;;;;;;27.77;7.55;;;;;;;34.31;33.46;100676.28;5106385;28;20105;-60
2022/06/25 05:09:52;;;;;;;24.10;6.07;;;;;;;34.24;33.50;100678.00;5100516;28;20043;-59
2022/06/25 05:15:07;;;;;;;23.10;5.05;;;;;;;34.92;26.94;100673.22;5110602;28;20158;-60
2022/06/25 05:17:35;;;;;;;17.45;4.65;;;;;;;35.15;25.26;100678.81;5104714;28;20028;-60
2022/06/25 05:20:03;;;;;;;24.88;5.13;;;;;;;35.00;24.92;100675.47;5102123;28;20032;-60
2022/06/25 05:22:30;;;;;;;20.42;4.45;;;;;;;34.86;25.07;100683.44;5098615;28;20031;-61
2022/06/25 05:24:58;;;;;;;25.63;5.38;;;;;;;34.56;25.89;100692.81;5109161;28;20042;-58
2022/06/25 05:27:24;;;;;;;28.52;9.02;;;;;;;34.55;26.56;100692.03;5106405;28;20028;-59
2022/06/25 05:29:51;;;;;;;24.08;7.15;;;;;;;34.61;24.71;100695.94;5100144;28;20389;-59
2022/06/25 05:32:19;;;;;;;20.75;4.93;;;;;;;34.76;21.00;100690.84;5098270;28;20044;-58
2022/06/25 05:34:48;;;;;;;18.33;3.63;;;;;;;34.82;18.86;100694.75;5107965;28;20050;-61
2022/06/25 05:37:15;;;;;;;14.27;2.95;;;;;;;35.19;16.84;100685.19;5079994;28;20102;-61
2022/06/25 05:39:42;;;;;;;12.80;3.20;;;;;;;35.24;16.58;100698.00;5104760;28;20032;-61
2022/06/25 05:42:11;;;;;;;9.73;2.80;;;;;;;35.42;15.52;100692.81;5099503;28;20020;-60
2022/06/25 05:44:37;;;;;;;9.13;2.60;;;;;;;35.32;15.42;100694.59;5105461;28;20366;-61
2022/06/25 05:47:04;;;;;;;12.68;2.65;;;;;;;35.11;15.03;100695.84;5094500;28;20020;-60
2022/06/25 05:49:31;;;;;;;7.18;2.40;;;;;;;34.98;15.33;100692.03;5093168;28;20089;-60
2022/06/25 05:51:58;;;;;;;12.10;2.85;;;;;;;34.84;15.32;100692.31;5102103;28;20024;-61
2022/06/25 05:54:24;;;;;;;18.50;3.10;;;;;;;34.95;15.03;100692.13;5098802;28;20028;-61
2022/06/25 05:56:51;;;;;;;13.00;3.45;;;;;;;34.93;15.03;100695.38;5109327;28;20023;-61
2022/06/25 05:59:18;;;;;;;14.75;2.97;;;;;;;34.95;14.83;100697.78;5097603;28;20024;-61
2022/06/25 06:01:44;;;;;;;10.13;2.97;;;;;;;34.66;14.74;100698.28;5092515;28;20020;-60
2022/06/25 06:04:11;;;;;;;12.60;2.75;;;;;;;34.51;15.10;100700.56;5092172;28;20032;-60
2022/06/25 06:06:38;;;;;;;15.95;2.88;;;;;;;34.65;14.72;100684.56;5093318;28;20028;-60
2022/06/25 06:09:04;;;;;;;14.65;3.80;;;;;;;34.35;15.38;100696.78;5093463;28;20051;-61
2022/06/25 06:11:31;;;;;;;11.80;3.05;;;;;;;34.24;15.23;100705.41;5093497;28;20031;-61
2022/06/25 06:13:58;;;;;;;12.90;2.78;;;;;;;34.13;15.27;100701.97;5092796;28;20016;-61
2022/06/25 06:16:24;;;;;;;13.18;2.83;;;;;;;34.05;15.33;100703.28;5090829;28;20025;-61
2022/06/25 06:18:51;;;;;;;15.35;2.78;;;;;;;34.12;15.11;100708.84;5093662;28;20043;-61
2022/06/25 06:21:17;;;;;;;14.88;3.25;;;;;;;33.97;15.52;100708.25;5102490;28;20434;-61
2022/06/25 06:23:44;;;;;;;29.95;3.42;;;;;;;33.78;16.40;100711.72;5099971;28;20103;-61
2022/06/25 06:26:11;;;;;;;9.95;2.78;;;;;;;33.78;15.80;100701.25;5100144;28;20109;-60
2022/06/25 06:28:37;;;;;;;18.55;3.53;;;;;;;33.97;15.47;100710.28;5097652;28;20022;-60
2022/06/25 06:31:04;;;;;;;23.60;3.83;;;;;;;33.82;15.89;100699.16;5098424;28;20118;-61
2022/06/25 06:33:31;;;;;;;22.58;4.68;;;;;;;33.58;15.61;100708.78;5097943;28;20051;-61
2022/06/25 06:35:58;;;;;;;23.10;4.25;;;;;;;33.80;15.62;100703.63;5097802;28;20046;-60
2022/06/25 06:38:24;;;;;;;18.60;4.18;;;;;;;34.00;15.42;100701.75;5097519;28;20058;-60
2022/06/25 06:40:51;;;;;;;17.05;3.13;;;;;;;34.19;14.40;100700.25;5098160;28;20359;-60
2022/06/25 06:43:17;;;;;;;19.80;3.22;;;;;;;34.38;14.28;100693.91;5098704;28;20016;-60
2022/06/25 06:45:44;;;;;;;12.55;3.35;;;;;;;34.17;14.48;100694.25;5097488;28;20028;-60
2022/06/25 06:48:11;;;;;;;11.38;2.55;;;;;;;34.42;14.21;100705.16;5097558;28;20059;-59
2022/06/25 06:50:38;;;;;;;11.40;2.47;;;;;;;34.49;13.52;100697.38;5097659;28;20051;-60
2022/06/25 06:53:04;;;;;;;12.98;2.00;;;;;;;34.53;13.67;100700.13;5100019;28;20030;-60
2022/06/25 06:55:31;;;;;;;7.88;1.70;;;;;;;34.61;13.64;100700.78;5097170;28;20055;-61
2022/06/25 06:57:57;;;;;;;5.47;1.50;;;;;;;34.63;13.65;100695.50;5097508;28;20024;-60
2022/06/25 07:00:24;;;;;;;5.78;1.60;;;;;;;34.58;13.54;100699.63;5097474;28;20025;-60
2022/06/25 07:02:51;;;;;;;9.95;2.55;;;;;;;34.51;13.57;100694.91;5098116;28;20046;-60
2022/06/25 07:05:17;;;;;;;10.23;3.08;;;;;;;34.37;13.71;100703.63;5098848;28;20038;-61
2022/06/25 07:07:47;;;;;;;9.27;2.50;;;;;;;34.40;13.85;100699.13;5097444;28;20028;-60
2022/06/25 07:10:14;;;;;;;6.60;2.30;;;;;;;34.56;13.42;100701.28;5097185;28;20463;-60
2022/06/25 07:12:41;;;;;;;13.02;2.22;;;;;;;34.41;13.60;100697.91;5096945;28;20024;-60
2022/06/25 07:15:08;;;;;;;15.57;2.40;;;;;;;34.48;13.33;100698.59;5099277;28;20114;-61
2022/06/25 07:17:35;;;;;;;14.77;2.30;;;;;;;34.39;13.38;100689.88;5097310;28;20031;-61
2022/06/25 07:20:01;;;;;;;11.35;2.75;;;;;;;34.58;13.41;100707.28;5097041;28;20020;-61
2022/06/25 07:22:28;;;;;;;12.40;2.40;;;;;;;34.48;13.28;100704.25;5094226;28;20058;-61
2022/06/25 07:24:55;;;;;;;8.15;2.30;;;;;;;34.34;13.55;100698.00;5097958;28;20032;-60
2022/06/25 07:27:21;;;;;;;12.00;2.28;;;;;;;34.28;13.93;100705.34;5098926;28;20477;-61
2022/06/25 07:29:48;;;;;;;11.18;2.28;;;;;;;34.26;13.94;100691.66;5094364;28;20012;-61
2022/06/25 07:32:15;;;;;;;10.82;1.90;;;;;;;34.20;13.41;100696.22;5106042;28;20044;-61
2022/06/25 07:34:41;;;;;;;9.27;1.88;;;;;;;34.24;13.55;100699.75;5098353;28;20054;-61
2022/06/25 07:37:09;;;;;;;8.55;1.90;;;;;;;34.13;13.78;100705.59;5111862;28;20034;-61
2022/06/25 07:39:35;;;;;;;7.10;2.10;;;;;;;33.65;14.38;100711.50;5101856;28;20053;-60
2022/06/25 07:42:02;;;;;;;9.05;2.40;;;;;;;33.51;14.46;100703.22;5104281;27;20402;-61
2022/06/25 07:44:29;;;;;;;10.27;2.70;;;;;;;33.33;14.29;100709.88;5109063;28;20214;-61
2022/06/25 07:46:55;;;;;;;7.78;2.30;;;;;;;33.22;14.33;100709.19;5098237;28;20134;-61
2022/06/25 07:49:22;;;;;;;10.93;3.33;;;;;;;32.90;14.76;100711.56;5108886;28;20091;-60
2022/06/25 07:52:00;;;;;;;12.60;3.25;;;;;;;32.64;15.47;100716.56;5102909;28;20028;-60
2022/06/25 07:54:31;;;;;;;9.05;3.00;;;;;;;32.44;15.55;100715.56;5101080;28;20056;-60
2022/06/25 07:56:58;;;;;;;7.75;2.80;;;;;;;32.26;16.22;100720.47;5100230;28;20040;-60
2022/06/25 07:59:25;;;;;;;8.93;2.65;;;;;;;32.03;16.77;100721.06;5109557;28;20035;-60
2022/06/25 08:01:52;;;;;;;10.27;3.08;;;;;;;31.79;16.99;100725.63;5103769;28;20118;-61
2022/06/25 08:04:19;;;;;;;10.00;2.30;;;;;;;31.56;17.58;100718.44;5101568;28;20081;-60
2022/06/25 08:06:46;;;;;;;12.25;3.00;;;;;;;31.51;17.04;100723.72;5110915;28;20051;-60
2022/06/25 08:09:12;;;;;;;18.73;2.90;;;;;;;31.34;17.68;100708.53;5081359;28;20405;-60
2022/06/25 08:11:39;;;;;;;11.40;2.63;;;;;;;31.16;17.55;100724.59;5107036;28;20042;-60
2022/06/25 08:14:06;;;;;;;11.30;2.45;;;;;;;30.98;18.13;100719.81;5105052;28;20412;-60
2022/06/25 08:16:33;;;;;;;15.70;2.97;;;;;;;31.05;18.19;100724.63;5099700;28;20390;-60
2022/06/25 08:19:00;;;;;;;16.42;2.70;;;;;;;30.95;18.45;100737.47;5110781;28;20673;-60
2022/06/25 08:21:26;;;;;;;20.98;3.28;;;;;;;30.80;18.37;100727.47;5099749;28;20451;-60
2022/06/25 08:23:53;;;;;;;17.23;2.90;;;;;;;30.72;18.64;100737.13;5105062;28;20028;-60
2022/06/25 08:26:20;;;;;;;16.00;3.17;;;;;;;30.69;20.07;100735.09;5107028;28;20036;-60
2022/06/25 08:28:47;;;;;;;14.90;2.85;;;;;;;30.75;21.18;100727.88;5114249;28;20026;-60
2022/06/25 08:31:14;;;;;;;12.35;3.00;;;;;;;30.65;22.31;100731.50;5097690;28;20076;-60
2022/06/25 08:33:40;;;;;;;15.07;3.00;;;;;;;30.61;21.34;100730.66;5106549;28;20487;-60
2022/06/25 08:36:07;;;;;;;15.05;3.15;;;;;;;30.72;21.05;100733.50;5104991;28;20063;-60
2022/06/25 08:38:34;;;;;;;14.10;3.10;;;;;;;30.63;21.55;100728.28;5099133;28;20064;-60
2022/06/25 08:41:01;;;;;;;16.35;3.10;;;;;;;30.61;22.82;100733.47;5110504;28;20036;-60
2022/06/25 08:43:28;;;;;;;15.18;3.58;;;;;;;30.54;25.62;100730.69;5099128;28;20040;-60
2022/06/25 08:45:55;;;;;;;20.70;4.68;;;;;;;30.48;28.66;100733.06;5104231;28;20027;-60
2022/06/25 08:48:31;;;;;;;19.30;4.85;;;;;;;30.33;32.08;100735.06;5106918;28;20049;-60
2022/06/25 08:50:59;;;;;;;21.42;4.82;;;;;;;30.24;35.62;100731.06;5097047;27;20036;-60
2022/06/25 08:53:35;;;;;;;17.92;5.00;;;;;;;30.08;37.66;100737.03;5108284;28;20020;-60
2022/06/25 08:56:02;;;;;;;24.52;5.32;;;;;;;30.02;38.78;100738.59;5098544;28;20064;-60
2022/06/25 08:58:29;;;;;;;20.88;5.47;;;;;;;29.94;39.28;100737.75;5107726;28;20024;-60
2022/06/25 09:00:56;;;;;;;21.42;5.32;;;;;;;29.85;39.55;100733.75;5096757;28;20397;-60
2022/06/25 09:03:23;;;;;;;25.60;5.47;;;;;;;29.91;40.48;100734.94;5108585;28;20103;-60
2022/06/25 09:05:50;;;;;;;22.20;5.93;;;;;;;29.87;41.29;100731.34;5098811;28;20397;-60
2022/06/25 09:08:17;;;;;;;23.75;5.50;;;;;;;29.84;41.18;100734.94;5100814;28;20039;-60
2022/06/25 09:10:53;;;;;;;49.40;6.25;;;;;;;29.73;43.76;100737.69;5109607;28;20063;-60
2022/06/25 09:13:24;;;;;;;21.13;5.20;;;;;;;29.95;42.91;100736.56;5090267;28;20040;-60
2022/06/25 09:15:51;;;;;;;21.85;5.50;;;;;;;30.04;43.37;100742.63;5104369;28;20027;-60
2022/06/25 09:18:19;;;;;;;24.63;5.82;;;;;;;29.74;44.33;100742.91;5096013;28;20493;-60
2022/06/25 09:21:05;;;;;;;34.47;6.22;;;;;;;29.54;45.37;100741.63;5092924;28;20036;-60
2022/06/25 09:23:34;;;;;;;16.88;6.00;;;;;;;29.47;46.49;100748.00;5085480;28;20107;-60
2022/06/25 09:26:04;;;;;;;20.65;5.97;;;;;;;29.76;47.41;100754.53;5102447;28;20454;-60
2022/06/25 09:28:33;;;;;;;16.77;5.18;;;;;;;29.59;46.79;100760.84;5107619;28;20442;-60
2022/06/25 09:31:02;;;;;;;17.30;5.80;;;;;;;29.43;47.36;100768.75;5096141;28;20504;-60
2022/06/25 09:33:33;;;;;;;15.73;5.60;;;;;;;29.30;47.25;100767.50;5107266;28;20077;-60
2022/06/25 09:36:00;;;;;;;15.70;5.80;;;;;;;29.11;47.94;100769.38;5102609;28;20482;-60
2022/06/25 09:38:27;;;;;;;28.15;6.35;;;;;;;29.02;49.16;100765.28;5099118;28;20509;-60
2022/06/25 09:41:00;;;;;;;24.08;7.03;;;;;;;29.19;48.71;100761.81;5109474;28;20118;-60
2022/06/25 09:43:29;;;;;;;24.40;7.38;;;;;;;29.23;49.03;100762.63;5097980;28;20040;-60
2022/06/25 09:46:01;;;;;;;24.52;7.65;;;;;;;29.11;49.02;100763.78;5099834;28;20046;-60
2022/06/25 09:48:31;;;;;;;20.27;7.80;;;;;;;28.92;49.88;100766.03;5106872;28;20038;-60
2022/06/25 09:51:06;;;;;;;28.67;8.80;;;;;;;28.85;50.35;100755.56;5096007;28;20502;-61
2022/06/25 09:53:34;;;;;;;23.55;7.53;;;;;;;28.80;50.03;100759.53;5106540;28;20036;-61
2022/06/25 09:56:03;;;;;;;20.10;7.10;;;;;;;28.82;50.20;100759.94;5097821;28;20020;-61
2022/06/25 09:58:32;;;;;;;20.85;6.22;;;;;;;28.77;52.42;100759.50;5095050;28;20039;-61
2022/06/25 10:00:58;;;;;;;33.65;7.25;;;;;;;28.59;52.49;100768.53;5093877;28;20028;-61
2022/06/25 10:03:26;;;;;;;24.27;6.82;;;;;;;28.42;53.07;100758.00;5107371;28;20052;-60
2022/06/25 10:05:55;;;;;;;18.38;6.65;;;;;;;28.38;52.60;100759.16;5100430;28;20085;-60
2022/06/25 10:08:24;;;;;;;17.08;7.10;;;;;;;28.45;53.19;100759.22;5098829;28;20035;-60
2022/06/25 10:10:52;;;;;;;22.92;7.03;;;;;;;28.42;53.67;100766.38;5109179;28;20111;-60
2022/06/25 10:13:19;;;;;;;31.33;7.72;;;;;;;28.35;53.59;100760.72;5091980;28;20024;-60
2022/06/25 10:15:46;;;;;;;18.33;7.95;;;;;;;28.39;53.80;100767.16;5100693;28;20023;-60
2022/06/25 10:18:13;;;;;;;27.58;8.43;;;;;;;28.38;52.80;100768.34;5100502;28;20036;-62
2022/06/25 10:20:41;;;;;;;42.85;8.85;;;;;;;28.36;52.69;100762.31;5106086;28;20048;-62
2022/06/25 10:23:11;;;;;;;23.13;7.70;;;;;;;28.38;54.06;100773.94;5092751;28;20039;-61
2022/06/25 10:25:39;;;;;;;35.00;8.25;;;;;;;28.28;54.92;100772.63;5097029;28;20481;-61
2022/06/25 10:28:13;;;;;;;18.20;7.18;;;;;;;28.27;54.21;100773.03;5112687;28;20030;-60
2022/06/25 10:30:51;;;;;;;28.92;7.80;;;;;;;28.12;55.33;100774.03;5095825;28;20040;-61
2022/06/25 10:33:22;;;;;;;33.53;8.18;;;;;;;28.06;55.49;100773.56;5080858;28;20466;-60
2022/06/25 10:35:50;;;;;;;34.75;8.60;;;;;;;28.02;55.83;100777.53;5103446;28;20036;-60
2022/06/25 10:38:22;;;;;;;25.88;8.93;;;;;;;27.99;56.03;100781.84;5104102;28;20050;-62
2022/06/25 10:42:58;;;;;;;34.80;10.00;;;;;;;27.86;56.50;100769.34;5094939;28;20050;-60
2022/06/25 10:43:51;;;;;;;25.88;9.98;;;;;;;28.00;56.34;100789.84;5092714;28;20028;-61
2022/06/25 10:46:25;;;;;;;25.33;10.93;;;;;;;28.09;56.03;100781.19;5104747;28;20035;-61
2022/06/25 10:48:51;;;;;;;;;;;;;;;27.96;57.68;100786.22;5096080;28;20055;-61
2022/06/25 10:51:40;;;;;;;24.00;13.80;;;;;;;27.89;56.42;100777.78;5108014;28;19923;-61
2022/06/25 10:54:34;;;;;;;30.95;13.65;;;;;;;27.87;56.67;100780.16;5102506;28;20039;-60
2022/06/25 10:57:01;;;;;;;21.17;12.35;;;;;;;27.76;58.20;100783.97;5102427;28;20126;-61
2022/06/25 10:59:39;;;;;;;22.02;12.43;;;;;;;27.67;58.40;100795.47;5106243;28;20115;-61
2022/06/25 11:02:08;;;;;;;23.45;12.10;;;;;;;27.61;58.44;100789.34;5102917;28;20036;-61
2022/06/25 11:04:37;;;;;;;23.05;11.90;;;;;;;27.77;57.48;100791.97;5097249;28;20032;-61
2022/06/25 11:07:18;;;;;;;22.30;12.32;;;;;;;27.85;56.37;100793.69;5107548;28;20036;-61
2022/06/25 11:10:11;;;;;;;29.73;12.80;;;;;;;27.80;58.11;100802.38;5101341;28;20553;-60
2022/06/25 11:12:39;;;;;;;25.35;12.10;;;;;;;27.68;58.67;100799.84;5096555;28;20055;-60
2022/06/25 11:15:08;;;;;;;36.05;13.60;;;;;;;27.59;58.85;100796.50;5112247;28;20034;-60
2022/06/25 11:17:35;;;;;;;32.28;11.80;;;;;;;27.56;59.10;100802.84;5102264;28;20024;-60
2022/06/25 11:20:10;;;;;;;29.20;10.95;;;;;;;27.56;59.72;100806.44;5104864;28;20016;-60
2022/06/25 11:22:52;;;;;;;24.73;10.15;;;;;;;27.51;59.97;100805.97;5111064;28;20086;-60
2022/06/25 11:30:49;;;;;;;24.08;7.43;;;;;;;27.64;58.48;100810.97;5098601;28;19923;-60
2022/06/25 11:33:16;;;;;;;21.52;7.00;;;;;;;27.70;58.96;100814.25;5111289;28;20048;-60
2022/06/25 11:35:45;;;;;;;19.05;6.72;;;;;;;27.56;60.14;100803.66;5099540;28;20043;-60
2022/06/25 11:38:19;;;;;;;20.80;6.30;;;;;;;27.47;60.80;100816.25;5106846;28;20028;-60
2022/06/25 11:40:46;;;;;;;14.15;6.28;;;;;;;27.39;60.93;100816.19;5098658;28;20032;-60
2022/06/25 11:43:14;;;;;;;15.88;7.63;;;;;;;27.33;60.73;100823.28;5089877;28;20072;-61
2022/06/25 11:45:53;;;;;;;19.05;7.10;;;;;;;27.28;61.27;100825.56;5107533;28;20047;-61
2022/06/25 11:48:20;;;;;;;15.30;5.82;;;;;;;27.29;60.63;100827.16;5107936;28;20046;-61